Time;durP1;ratioP1;P1;durP2;ratioP2;P2;SDS_P1;SDS_P2;PMS_P1;PMS_P2;Temp;Humidity;BMP_temperature;BMP_pressure;BME280_temperature;BME280_humidity;BME280_pressure;Samples;Min_cycle;Max_cycle;Signal;HPM_P1;HPM_P2
2022/06/10 00:02:13;;;;;;;1.25;1.15;;;;;;;;;;4960538;28;20106;-70
2022/06/10 00:04:39;;;;;;;1.60;1.50;;;;;;;;;;4969215;28;20078;-70
2022/06/10 00:07:04;;;;;;;1.40;1.30;;;;;;;;;;4958932;28;20133;-69
2022/06/10 00:09:29;;;;;;;1.60;1.50;;;;;;;;;;4967941;28;20089;-71
2022/06/10 00:11:55;;;;;;;1.40;1.30;;;;;;;;;;4970334;28;20349;-70
2022/06/10 00:14:20;;;;;;;2.70;1.40;;;;;;;;;;4964034;28;20422;-75
2022/06/10 00:16:45;;;;;;;2.10;1.80;;;;;;;;;;4961779;28;20517;-72
2022/06/10 00:19:11;;;;;;;2.80;1.98;;;;;;;;;;4975497;28;20419;-69
2022/06/10 00:21:36;;;;;;;1.50;1.40;;;;;;;;;;4967752;28;20030;-72
2022/06/10 00:24:02;;;;;;;1.65;1.55;;;;;;;;;;4964800;28;20117;-72
2022/06/10 00:26:27;;;;;;;2.53;1.42;;;;;;;;;;4975359;28;20038;-74
2022/06/10 00:28:52;;;;;;;1.50;1.38;;;;;;;;;;4973694;28;20037;-71
2022/06/10 00:31:18;;;;;;;1.90;1.50;;;;;;;;;;4967832;28;20084;-70
2022/06/10 00:33:43;;;;;;;1.92;1.58;;;;;;;;;;4958598;28;20518;-70
2022/06/10 00:36:09;;;;;;;1.48;1.38;;;;;;;;;;4970832;28;20034;-71
2022/06/10 00:38:35;;;;;;;1.65;1.40;;;;;;;;;;4973669;28;20190;-72
2022/06/10 00:41:02;;;;;;;1.60;1.50;;;;;;;;;;4976259;28;20038;-72
2022/06/10 00:43:31;;;;;;;2.55;1.50;;;;;;;;;;4973285;28;20129;-72
2022/06/10 00:46:15;;;;;;;1.65;1.30;;;;;;;;;;4966578;28;20039;-74
2022/06/10 00:48:43;;;;;;;1.70;1.60;;;;;;;;;;4964424;28;20121;-71
2022/06/10 00:51:20;;;;;;;2.22;1.90;;;;;;;;;;4960615;28;20015;-74
2022/06/10 00:53:47;;;;;;;2.60;2.10;;;;;;;;;;4973889;28;20058;-72
2022/06/10 00:56:15;;;;;;;4.30;2.42;;;;;;;;;;4969891;28;20790;-71
2022/06/10 00:58:47;;;;;;;2.90;2.42;;;;;;;;;;4971984;28;20026;-71
2022/06/10 01:01:13;;;;;;;2.33;1.75;;;;;;;;;;4973519;28;20366;-74
2022/06/10 01:03:41;;;;;;;2.72;1.65;;;;;;;;;;4963394;28;20181;-70
2022/06/10 01:06:07;;;;;;;1.67;1.58;;;;;;;;;;4966777;28;20478;-71
2022/06/10 01:08:32;;;;;;;3.05;1.65;;;;;;;;;;4973018;28;20030;-75
2022/06/10 01:11:16;;;;;;;1.65;1.55;;;;;;;;;;4974301;28;20078;-71
2022/06/10 01:13:53;;;;;;;2.45;1.45;;;;;;;;;;4972732;28;20438;-72
2022/06/10 01:16:24;;;;;;;1.50;1.40;;;;;;;;;;4960455;28;20300;-71
2022/06/10 01:18:58;;;;;;;2.25;1.42;;;;;;;;;;4973000;28;20419;-75
2022/06/10 01:21:43;;;;;;;2.58;1.90;;;;;;;;;;4971336;28;20023;-72
2022/06/10 01:24:26;;;;;;;3.17;1.52;;;;;;;;;;4972149;28;20018;-71
2022/06/10 01:29:38;;;;;;;2.33;1.52;;;;;;;;;;4974181;28;20033;-75
2022/06/10 01:32:07;;;;;;;2.20;1.40;;;;;;;;;;4970355;28;20022;-72
2022/06/10 01:34:47;;;;;;;1.70;1.40;;;;;;;;;;4976227;28;20030;-71
2022/06/10 01:37:17;;;;;;;2.78;1.35;;;;;;;;;;4969965;28;20469;-72
2022/06/10 01:40:00;;;;;;;2.55;1.58;;;;;;;;;;4956373;28;20427;-73
2022/06/10 01:42:31;;;;;;;1.63;1.30;;;;;;;;;;4973606;28;20043;-71
2022/06/10 01:45:01;;;;;;;1.70;1.60;;;;;;;;;;4968616;28;20370;-75
2022/06/10 01:47:31;;;;;;;3.08;1.50;;;;;;;;;;4969141;28;20026;-71
2022/06/10 01:49:59;;;;;;;2.85;1.65;;;;;;;;;;4972194;28;20041;-71
2022/06/10 01:52:24;;;;;;;2.83;1.70;;;;;;;;;;4974457;28;20442;-71
2022/06/10 01:54:53;;;;;;;1.70;1.60;;;;;;;;;;4971381;28;20046;-71
2022/06/10 01:57:41;;;;;;;1.98;1.75;;;;;;;;;;4969175;28;20054;-74
2022/06/10 02:00:10;;;;;;;1.70;1.60;;;;;;;;;;4964712;28;20472;-70
2022/06/10 02:02:39;;;;;;;1.20;1.17;;;;;;;;;;4970222;28;20328;-69
2022/06/10 02:05:09;;;;;;;1.73;1.63;;;;;;;;;;4969500;28;20459;-74
2022/06/10 02:07:34;;;;;;;;;;;;;;;;;;4971061;28;20153;-71
2022/06/10 02:10:09;;;;;;;1.50;1.30;;;;;;;;;;4968550;28;20345;-70
2022/06/10 02:12:40;;;;;;;1.83;1.60;;;;;;;;;;4992446;28;20460;-70
2022/06/10 02:15:14;;;;;;;3.53;2.05;;;;;;;;;;4970657;28;20053;-71
2022/06/10 02:17:42;;;;;;;2.00;1.90;;;;;;;;;;4960067;28;20128;-70
2022/06/10 02:20:11;;;;;;;2.72;2.35;;;;;;;;;;4964488;28;20126;-74
2022/06/10 02:22:45;;;;;;;3.65;1.95;;;;;;;;;;4969517;28;20035;-70
2022/06/10 02:25:13;;;;;;;2.33;2.03;;;;;;;;;;4970117;28;20487;-73
2022/06/10 02:27:42;;;;;;;3.60;1.98;;;;;;;;;;4972470;28;20109;-70
2022/06/10 02:30:19;;;;;;;3.63;2.40;;;;;;;;;;4967152;28;20057;-75
2022/06/10 02:32:45;;;;;;;2.63;2.28;;;;;;;;;;4974680;28;20118;-72
2022/06/10 02:35:12;;;;;;;4.28;2.33;;;;;;;;;;4971638;28;20034;-73
2022/06/10 02:37:47;;;;;;;4.07;2.35;;;;;;;;;;4969110;28;20101;-74
2022/06/10 02:40:30;;;;;;;2.63;2.13;;;;;;;;;;4968782;28;20056;-71
2022/06/10 02:43:01;;;;;;;3.67;2.35;;;;;;;;;;4957455;28;20088;-71
2022/06/10 02:45:51;;;;;;;2.35;2.15;;;;;;;;;;4969643;28;20478;-70
2022/06/10 02:48:16;;;;;;;;;;;;;;;;;;4966628;28;20018;-70
2022/06/10 02:50:43;;;;;;;2.20;1.77;;;;;;;;;;4964052;28;19993;-75
2022/06/10 02:53:09;;;;;;;2.30;2.00;;;;;;;;;;4971657;28;20019;-70
2022/06/10 02:55:34;;;;;;;2.42;2.05;;;;;;;;;;4967769;28;20102;-70
2022/06/10 03:01:33;;;;;;;2.65;2.33;;;;;;;;;;4968926;28;20151;-72
2022/06/10 03:04:10;;;;;;;2.55;2.22;;;;;;;;;;4967106;28;20038;-71
2022/06/10 03:06:39;;;;;;;6.07;2.60;;;;;;;;;;4966889;28;20142;-71
2022/06/10 03:09:20;;;;;;;4.95;2.95;;;;;;;;;;4957622;28;20031;-71
2022/06/10 03:11:45;;;;;;;2.63;2.42;;;;;;;;;;4954060;28;20050;-70
2022/06/10 03:14:30;;;;;;;4.75;2.72;;;;;;;;;;4966674;28;20030;-70
2022/06/10 03:17:10;;;;;;;3.42;2.83;;;;;;;;;;4972122;28;20058;-70
2022/06/10 03:19:38;;;;;;;2.33;2.13;;;;;;;;;;4972895;28;20029;-69
2022/06/10 03:22:03;;;;;;;2.72;2.40;;;;;;;;;;4972355;28;20109;-69
2022/06/10 03:24:34;;;;;;;2.53;2.20;;;;;;;;;;4976872;28;20461;-69
2022/06/10 03:27:06;;;;;;;2.63;2.42;;;;;;;;;;4959356;28;20403;-72
2022/06/10 03:29:32;;;;;;;4.60;2.65;;;;;;;;;;4966859;28;20025;-74
2022/06/10 03:32:03;;;;;;;3.70;2.40;;;;;;;;;;4968127;28;20106;-72
2022/06/10 03:34:31;;;;;;;3.08;2.35;;;;;;;;;;4969596;28;20094;-74
2022/06/10 03:36:58;;;;;;;2.70;2.30;;;;;;;;;;4971276;28;20019;-70
2022/06/10 03:39:24;;;;;;;2.85;2.35;;;;;;;;;;4965814;28;20097;-76
2022/06/10 03:41:55;;;;;;;2.78;2.50;;;;;;;;;;4971381;28;20406;-70
2022/06/10 03:44:21;;;;;;;3.15;2.30;;;;;;;;;;4963987;28;20106;-76
2022/06/10 03:46:48;;;;;;;3.70;2.65;;;;;;;;;;4960741;28;20133;-71
2022/06/10 03:49:14;;;;;;;3.42;2.35;;;;;;;;;;4966204;28;20133;-73
2022/06/10 03:51:40;;;;;;;2.35;2.08;;;;;;;;;;4960908;28;20062;-71
2022/06/10 03:54:05;;;;;;;2.15;1.95;;;;;;;;;;4970709;28;20073;-70
2022/06/10 03:56:31;;;;;;;3.50;2.28;;;;;;;;;;4964775;28;20057;-70
2022/06/10 03:58:56;;;;;;;4.53;2.30;;;;;;;;;;4973957;28;20035;-73
2022/06/10 04:01:22;;;;;;;3.05;2.75;;;;;;;;;;4960642;28;20389;-68
2022/06/10 04:03:47;;;;;;;4.43;2.50;;;;;;;;;;4964588;28;20027;-70
2022/06/10 04:06:13;;;;;;;2.35;2.15;;;;;;;;;;4971678;28;20129;-70
2022/06/10 04:08:38;;;;;;;4.47;2.22;;;;;;;;;;4965191;28;20037;-73
2022/06/10 04:11:04;;;;;;;3.50;2.40;;;;;;;;;;4964776;28;20026;-71
2022/06/10 04:13:29;;;;;;;2.50;2.28;;;;;;;;;;4959502;28;20038;-76
2022/06/10 04:15:54;;;;;;;3.78;2.47;;;;;;;;;;4964734;28;20386;-72
2022/06/10 04:18:20;;;;;;;2.45;2.05;;;;;;;;;;4970835;28;20354;-72
2022/06/10 04:20:45;;;;;;;3.00;2.30;;;;;;;;;;4963723;28;20037;-71
2022/06/10 04:23:13;;;;;;;3.65;2.60;;;;;;;;;;4968707;28;20081;-69
2022/06/10 04:25:39;;;;;;;4.40;2.88;;;;;;;;;;4962258;28;20119;-72
2022/06/10 04:28:05;;;;;;;4.15;2.70;;;;;;;;;;4966092;28;20054;-69
2022/06/10 04:30:32;;;;;;;3.83;2.85;;;;;;;;;;4958310;28;20190;-69
2022/06/10 04:32:58;;;;;;;3.85;2.72;;;;;;;;;;4967176;28;20129;-72
2022/06/10 04:35:24;;;;;;;2.97;2.63;;;;;;;;;;4959797;28;20107;-74
2022/06/10 04:37:50;;;;;;;2.78;2.58;;;;;;;;;;4956535;28;20217;-74
2022/06/10 04:40:17;;;;;;;3.15;2.47;;;;;;;;;;4954113;28;20035;-71
2022/06/10 04:42:44;;;;;;;6.70;2.75;;;;;;;;;;4953055;28;20078;-73
2022/06/10 04:45:10;;;;;;;3.65;2.95;;;;;;;;;;4952340;28;20126;-77
2022/06/10 04:47:35;;;;;;;4.00;2.80;;;;;;;;;;4955857;28;20365;-71
2022/06/10 04:50:01;;;;;;;2.88;2.50;;;;;;;;;;4955163;28;20038;-73
2022/06/10 04:52:27;;;;;;;3.03;2.38;;;;;;;;;;4954848;28;20034;-72
2022/06/10 04:54:53;;;;;;;3.63;2.65;;;;;;;;;;4952441;28;20048;-72
2022/06/10 04:57:18;;;;;;;3.58;2.50;;;;;;;;;;4954231;28;20478;-76
2022/06/10 04:59:43;;;;;;;3.25;2.38;;;;;;;;;;4956254;28;20037;-72
2022/06/10 05:02:09;;;;;;;3.63;2.42;;;;;;;;;;4955036;28;21686;-70
2022/06/10 05:04:34;;;;;;;2.63;2.42;;;;;;;;;;4959102;28;21041;-76
2022/06/10 05:07:00;;;;;;;2.40;2.20;;;;;;;;;;4966111;28;20084;-70
2022/06/10 05:09:25;;;;;;;4.10;2.50;;;;;;;;;;4972707;28;20018;-70
2022/06/10 05:11:50;;;;;;;3.03;2.67;;;;;;;;;;4972855;28;20038;-70
2022/06/10 05:14:16;;;;;;;2.53;2.25;;;;;;;;;;4963084;28;20033;-69
2022/06/10 05:16:41;;;;;;;4.32;3.03;;;;;;;;;;4957066;28;20023;-71
2022/06/10 05:19:07;;;;;;;3.90;2.63;;;;;;;;;;4953743;28;20019;-71
2022/06/10 05:21:32;;;;;;;2.55;2.35;;;;;;;;;;4953808;28;20045;-72
2022/06/10 05:23:57;;;;;;;2.85;2.65;;;;;;;;;;4956549;28;20030;-73
2022/06/10 05:26:23;;;;;;;2.45;2.22;;;;;;;;;;4955010;28;20030;-73
2022/06/10 05:28:51;;;;;;;2.70;2.50;;;;;;;;;;4954231;28;21324;-74
2022/06/10 05:31:17;;;;;;;3.25;2.85;;;;;;;;;;4953135;28;20034;-70
2022/06/10 05:36:26;;;;;;;4.15;3.22;;;;;;;;;;4954309;28;20045;-70
2022/06/10 05:38:51;;;;;;;3.60;3.30;;;;;;;;;;4961820;28;20023;-72
2022/06/10 05:44:01;;;;;;;4.80;3.47;;;;;;;;;;4954404;28;20063;-71
2022/06/10 05:46:26;;;;;;;4.03;3.60;;;;;;;;;;4966956;28;20042;-70
2022/06/10 05:48:51;;;;;;;4.30;3.15;;;;;;;;;;4970951;28;20031;-69
2022/06/10 05:51:18;;;;;;;4.00;3.60;;;;;;;;;;4957736;28;20095;-70
2022/06/10 05:53:44;;;;;;;3.95;3.58;;;;;;;;;;4967710;28;20035;-70
2022/06/10 05:56:09;;;;;;;5.60;3.78;;;;;;;;;;4970021;28;20050;-77
2022/06/10 05:58:34;;;;;;;5.68;3.90;;;;;;;;;;4961783;28;20022;-75
2022/06/10 06:01:00;;;;;;;4.75;4.18;;;;;;;;;;4952114;28;20031;-74
2022/06/10 06:03:25;;;;;;;6.28;4.53;;;;;;;;;;4960478;28;20065;-71
2022/06/10 06:05:50;;;;;;;4.68;4.03;;;;;;;;;;4953540;28;20109;-70
2022/06/10 06:08:16;;;;;;;5.00;4.50;;;;;;;;;;4954024;28;20027;-70
2022/06/10 06:10:42;;;;;;;5.93;4.57;;;;;;;;;;4957316;28;20061;-75
2022/06/10 06:13:07;;;;;;;5.60;4.53;;;;;;;;;;4956271;28;20038;-77
2022/06/10 06:15:32;;;;;;;6.55;4.80;;;;;;;;;;4968486;28;21300;-73
2022/06/10 06:17:58;;;;;;;5.25;4.60;;;;;;;;;;4968965;28;20435;-71
2022/06/10 06:20:24;;;;;;;5.63;4.88;;;;;;;;;;4973443;28;20031;-71
2022/06/10 06:22:49;;;;;;;4.78;4.38;;;;;;;;;;4972126;28;20026;-71
2022/06/10 06:25:16;;;;;;;5.45;4.95;;;;;;;;;;4970699;28;20240;-71
2022/06/10 06:27:42;;;;;;;5.38;4.85;;;;;;;;;;4969089;28;20138;-74
2022/06/10 06:30:10;;;;;;;5.78;5.28;;;;;;;;;;4970724;28;20023;-72
2022/06/10 06:32:35;;;;;;;4.88;4.43;;;;;;;;;;4969600;28;20041;-71
2022/06/10 06:35:01;;;;;;;5.50;5.00;;;;;;;;;;4969168;28;20466;-71
2022/06/10 06:37:26;;;;;;;4.47;4.18;;;;;;;;;;4966303;28;20031;-76
2022/06/10 06:39:51;;;;;;;6.72;4.43;;;;;;;;;;4968482;28;20482;-72
2022/06/10 06:42:17;;;;;;;4.70;4.30;;;;;;;;;;4969241;28;20026;-71
2022/06/10 06:44:42;;;;;;;5.38;4.72;;;;;;;;;;4969596;28;20435;-76
2022/06/10 06:47:12;;;;;;;4.63;4.20;;;;;;;;;;4970022;28;20097;-73
2022/06/10 06:49:37;;;;;;;5.70;4.20;;;;;;;;;;4966476;28;20031;-72
2022/06/10 06:52:04;;;;;;;5.75;4.30;;;;;;;;;;4970124;28;20037;-70
2022/06/10 06:54:30;;;;;;;4.30;3.97;;;;;;;;;;4967799;28;20073;-72
2022/06/10 06:56:57;;;;;;;4.82;4.30;;;;;;;;;;4969979;28;20443;-72
2022/06/10 06:59:22;;;;;;;7.60;4.40;;;;;;;;;;4970842;28;20098;-76
2022/06/10 07:01:47;;;;;;;4.75;4.30;;;;;;;;;;4968147;28;20494;-72
2022/06/10 07:04:13;;;;;;;6.63;4.05;;;;;;;;;;4972512;28;20033;-74
2022/06/10 07:06:38;;;;;;;6.63;3.70;;;;;;;;;;4972147;28;20106;-75
2022/06/10 07:09:04;;;;;;;4.22;3.83;;;;;;;;;;4974175;28;20031;-71
2022/06/10 07:11:31;;;;;;;3.88;3.58;;;;;;;;;;4969186;28;20105;-71
2022/06/10 07:13:56;;;;;;;4.32;4.03;;;;;;;;;;4968615;28;20030;-71
2022/06/10 07:16:22;;;;;;;5.47;3.60;;;;;;;;;;4967178;28;20089;-72
2022/06/10 07:18:47;;;;;;;3.65;3.35;;;;;;;;;;4968261;28;20073;-76
2022/06/10 07:21:12;;;;;;;7.70;3.67;;;;;;;;;;4969046;28;20042;-71
2022/06/10 07:23:38;;;;;;;4.05;3.35;;;;;;;;;;4970567;28;20025;-71
2022/06/10 07:26:04;;;;;;;3.85;3.55;;;;;;;;;;4969242;28;20122;-75
2022/06/10 07:28:29;;;;;;;5.35;3.70;;;;;;;;;;4970228;28;20569;-70
2022/06/10 07:30:55;;;;;;;4.18;3.20;;;;;;;;;;4966609;28;20055;-70
2022/06/10 07:33:21;;;;;;;5.60;3.95;;;;;;;;;;4966761;28;20045;-73
2022/06/10 07:35:47;;;;;;;4.20;3.78;;;;;;;;;;4966822;28;20097;-70
2022/06/10 07:38:12;;;;;;;6.50;3.10;;;;;;;;;;4971090;28;20034;-76
2022/06/10 07:43:23;;;;;;;3.47;3.13;;;;;;;;;;4971149;28;20450;-70
2022/06/10 07:45:49;;;;;;;3.45;3.15;;;;;;;;;;4969992;28;20117;-71
2022/06/10 07:48:14;;;;;;;2.88;2.60;;;;;;;;;;4970584;28;20018;-76
2022/06/10 07:50:41;;;;;;;4.38;3.05;;;;;;;;;;4969144;28;20552;-70
2022/06/10 07:53:07;;;;;;;4.57;2.80;;;;;;;;;;4969402;28;20041;-77
2022/06/10 07:55:32;;;;;;;3.50;2.70;;;;;;;;;;4971154;28;20450;-72
2022/06/10 07:57:57;;;;;;;4.40;2.78;;;;;;;;;;4970827;28;20043;-71
2022/06/10 08:00:25;;;;;;;2.53;2.33;;;;;;;;;;4969397;28;20051;-75
2022/06/10 08:02:50;;;;;;;2.75;2.55;;;;;;;;;;4967007;28;20022;-76
2022/06/10 08:05:16;;;;;;;2.67;2.40;;;;;;;;;;4968596;28;20045;-70
2022/06/10 08:07:41;;;;;;;3.35;2.42;;;;;;;;;;4968963;28;20045;-71
2022/06/10 08:10:14;;;;;;;2.85;2.65;;;;;;;;;;4970910;28;20035;-70
2022/06/10 08:12:39;;;;;;;4.47;2.42;;;;;;;;;;4959937;28;20033;-75
2022/06/10 08:15:05;;;;;;;3.25;2.38;;;;;;;;;;4965466;28;20038;-73
2022/06/10 08:17:30;;;;;;;2.75;2.05;;;;;;;;;;4967533;28;20122;-72
2022/06/10 08:19:56;;;;;;;2.92;2.40;;;;;;;;;;4969670;28;20034;-71
2022/06/10 08:22:34;;;;;;;3.80;2.80;;;;;;;;;;4968489;28;20085;-74
2022/06/10 08:25:00;;;;;;;2.60;2.40;;;;;;;;;;4968358;28;20043;-70
2022/06/10 08:27:25;;;;;;;2.47;2.28;;;;;;;;;;4966989;28;20044;-70
2022/06/10 08:29:51;;;;;;;3.05;2.55;;;;;;;;;;4968093;28;20462;-71
2022/06/10 08:32:16;;;;;;;2.40;2.20;;;;;;;;;;4967066;28;20035;-70
2022/06/10 08:34:41;;;;;;;4.15;2.47;;;;;;;;;;4968356;28;20033;-74
2022/06/10 08:37:07;;;;;;;2.38;2.17;;;;;;;;;;4971765;28;20431;-70
2022/06/10 08:39:32;;;;;;;2.08;1.90;;;;;;;;;;4973323;28;20086;-75
2022/06/10 08:42:18;;;;;;;3.95;2.45;;;;;;;;;;4970653;28;20105;-71
2022/06/10 08:44:54;;;;;;;2.35;2.15;;;;;;;;;;4970259;28;20034;-70
2022/06/10 08:47:35;;;;;;;2.17;1.77;;;;;;;;;;4955959;28;20086;-69
2022/06/10 08:50:00;;;;;;;3.45;1.90;;;;;;;;;;4969656;28;20102;-71
2022/06/10 08:52:31;;;;;;;2.17;1.70;;;;;;;;;;4974396;28;20071;-71
2022/06/10 08:55:23;;;;;;;1.75;1.65;;;;;;;;;;4970537;28;20019;-70
2022/06/10 08:57:49;;;;;;;2.05;1.80;;;;;;;;;;4943944;28;20054;-69
2022/06/10 09:00:20;;;;;;;2.00;1.90;;;;;;;;;;4975045;28;20418;-74
2022/06/10 09:02:51;;;;;;;1.80;1.70;;;;;;;;;;4974907;28;20476;-72
2022/06/10 09:05:20;;;;;;;9.55;1.80;;;;;;;;;;4970377;28;20037;-73
2022/06/10 09:07:55;;;;;;;3.75;1.50;;;;;;;;;;4971517;28;20034;-71
2022/06/10 09:10:23;;;;;;;2.28;1.73;;;;;;;;;;4968049;28;20050;-71
2022/06/10 09:12:51;;;;;;;2.50;1.80;;;;;;;;;;4957755;28;20030;-71
2022/06/10 09:15:17;;;;;;;5.50;1.88;;;;;;;;;;4962225;28;20035;-68
2022/06/10 09:17:47;;;;;;;2.72;2.20;;;;;;;;;;4963814;28;20338;-69
2022/06/10 09:20:23;;;;;;;1.67;1.55;;;;;;;;;;4966007;28;20022;-69
2022/06/10 09:22:53;;;;;;;2.05;1.50;;;;;;;;;;4970777;28;20073;-70
2022/06/10 09:25:30;;;;;;;2.28;1.42;;;;;;;;;;4958391;28;20030;-72
2022/06/10 09:27:57;;;;;;;1.83;1.73;;;;;;;;;;4962280;28;20255;-71
2022/06/10 09:30:26;;;;;;;2.20;1.50;;;;;;;;;;4971491;28;20041;-72
2022/06/10 09:33:02;;;;;;;1.85;1.65;;;;;;;;;;4973884;28;20459;-74
2022/06/10 09:35:53;;;;;;;1.73;1.60;;;;;;;;;;4972584;28;20022;-72
2022/06/10 09:38:36;;;;;;;2.10;1.73;;;;;;;;;;4962627;28;20406;-71
2022/06/10 09:41:21;;;;;;;3.13;1.60;;;;;;;;;;4972033;28;20031;-70
2022/06/10 09:43:54;;;;;;;1.88;1.77;;;;;;;;;;4956198;28;20046;-75
2022/06/10 09:46:28;;;;;;;1.70;1.60;;;;;;;;;;4971231;28;20034;-71
2022/06/10 09:48:57;;;;;;;1.63;1.48;;;;;;;;;;4954686;28;20422;-71
2022/06/10 09:51:23;;;;;;;;;;;;;;;;;;4971746;28;20479;-73
2022/06/10 09:54:06;;;;;;;1.90;1.70;;;;;;;;;;4973682;28;19929;-69
2022/06/10 09:56:55;;;;;;;2.25;1.65;;;;;;;;;;4971791;28;20081;-71
2022/06/10 09:59:26;;;;;;;1.77;1.67;;;;;;;;;;4971241;28;20041;-69
2022/06/10 10:01:58;;;;;;;1.70;1.60;;;;;;;;;;4971644;28;20034;-71
2022/06/10 10:04:42;;;;;;;1.80;1.70;;;;;;;;;;4967986;28;20026;-68
2022/06/10 10:07:12;;;;;;;1.45;1.35;;;;;;;;;;4972524;28;20450;-74
2022/06/10 10:09:40;;;;;;;2.25;1.88;;;;;;;;;;4965659;28;20030;-72
2022/06/10 10:12:06;;;;;;;2.05;1.75;;;;;;;;;;4966471;28;20391;-70
2022/06/10 10:14:45;;;;;;;2.03;1.85;;;;;;;;;;4973419;28;20038;-71
2022/06/10 10:17:13;;;;;;;3.75;1.98;;;;;;;;;;4973501;28;20022;-74
2022/06/10 10:19:47;;;;;;;2.80;1.67;;;;;;;;;;4972737;28;20026;-71
2022/06/10 10:22:31;;;;;;;1.70;1.60;;;;;;;;;;4970823;28;20276;-74
2022/06/10 10:24:57;;;;;;;2.05;1.85;;;;;;;;;;4968414;28;20038;-72
2022/06/10 10:27:33;;;;;;;1.83;1.73;;;;;;;;;;4963276;28;20418;-69
2022/06/10 10:30:04;;;;;;;2.00;1.83;;;;;;;;;;4953663;28;20481;-72
2022/06/10 10:32:33;;;;;;;1.88;1.77;;;;;;;;;;4956293;28;20026;-69
2022/06/10 10:35:08;;;;;;;1.77;1.60;;;;;;;;;;4954040;28;20026;-73
2022/06/10 10:37:35;;;;;;;4.55;1.92;;;;;;;;;;4953948;28;20092;-71
2022/06/10 10:40:18;;;;;;;2.88;1.90;;;;;;;;;;4966492;28;20014;-73
2022/06/10 10:42:44;;;;;;;2.65;1.80;;;;;;;;;;4972175;28;20041;-75
2022/06/10 10:45:18;;;;;;;3.60;1.63;;;;;;;;;;4971775;28;20355;-74
2022/06/10 10:47:53;;;;;;;3.60;1.77;;;;;;;;;;4973761;28;20030;-70
2022/06/10 10:50:21;;;;;;;3.38;1.88;;;;;;;;;;4969189;28;20443;-74
2022/06/10 10:52:48;;;;;;;4.05;2.05;;;;;;;;;;4971355;28;20036;-73
2022/06/10 10:55:13;;;;;;;1.70;1.60;;;;;;;;;;4971130;28;20775;-68
2022/06/10 10:57:51;;;;;;;2.15;1.73;;;;;;;;;;4971706;28;20057;-73
2022/06/10 11:00:16;;;;;;;2.30;2.10;;;;;;;;;;4966304;28;20122;-71
2022/06/10 11:02:52;;;;;;;4.35;2.20;;;;;;;;;;4972400;28;20068;-73
2022/06/10 11:05:21;;;;;;;4.20;2.40;;;;;;;;;;4970716;28;20030;-70
2022/06/10 11:07:47;;;;;;;3.35;2.67;;;;;;;;;;4972647;28;20122;-71
2022/06/10 11:10:20;;;;;;;3.97;2.70;;;;;;;;;;4973893;28;20120;-71
2022/06/10 11:12:45;;;;;;;4.10;2.90;;;;;;;;;;4971018;28;20379;-73
2022/06/10 11:15:34;;;;;;;3.85;2.78;;;;;;;;;;4968120;28;20053;-69
2022/06/10 11:18:01;;;;;;;3.45;2.38;;;;;;;;;;4970774;28;20328;-75
2022/06/10 11:20:32;;;;;;;2.72;1.70;;;;;;;;;;4969611;28;20037;-72
2022/06/10 11:23:16;;;;;;;3.13;1.90;;;;;;;;;;4969736;28;21282;-70
2022/06/10 11:25:41;;;;;;;2.22;2.03;;;;;;;;;;4968228;28;20066;-70
2022/06/10 11:28:17;;;;;;;2.50;2.08;;;;;;;;;;4971457;28;20062;-69
2022/06/10 11:30:44;;;;;;;2.30;2.10;;;;;;;;;;4969172;28;20911;-70
2022/06/10 11:33:28;;;;;;;3.10;2.20;;;;;;;;;;4968325;28;20102;-71
2022/06/10 11:36:02;;;;;;;3.30;1.77;;;;;;;;;;4969400;28;20042;-71
2022/06/10 11:38:29;;;;;;;3.55;2.03;;;;;;;;;;4969980;28;20027;-70
2022/06/10 11:41:14;;;;;;;2.03;1.83;;;;;;;;;;4969323;28;20365;-70
2022/06/10 11:43:46;;;;;;;2.22;1.98;;;;;;;;;;4967610;28;20084;-72
2022/06/10 11:46:30;;;;;;;2.60;2.00;;;;;;;;;;4970448;28;20030;-72
2022/06/10 11:49:10;;;;;;;2.55;2.33;;;;;;;;;;4972724;28;20035;-68
2022/06/10 11:51:42;;;;;;;2.47;2.05;;;;;;;;;;4969114;28;20030;-75
2022/06/10 11:54:18;;;;;;;2.83;2.33;;;;;;;;;;4971384;28;20022;-71
2022/06/10 11:59:45;;;;;;;2.50;2.30;;;;;;;;;;4970337;28;20113;-70
2022/06/10 12:02:15;;;;;;;2.53;2.33;;;;;;;;;;4973092;28;20462;-70
2022/06/10 12:04:43;;;;;;;3.15;2.20;;;;;;;;;;4971506;28;20094;-71
2022/06/10 12:07:20;;;;;;;2.50;2.20;;;;;;;;;;4968939;28;20443;-69
2022/06/10 12:09:49;;;;;;;2.60;2.40;;;;;;;;;;4969456;28;20039;-69
2022/06/10 12:12:22;;;;;;;3.17;2.17;;;;;;;;;;4975920;28;21073;-71
2022/06/10 12:14:51;;;;;;;4.88;2.63;;;;;;;;;;4973446;28;20034;-69
2022/06/10 12:17:30;;;;;;;2.43;2.20;;;;;;;;;;4973645;28;20041;-69
2022/06/10 12:19:59;;;;;;;3.40;2.17;;;;;;;;;;4972838;28;20153;-72
2022/06/10 12:22:27;;;;;;;2.92;2.35;;;;;;;;;;4972274;28;20062;-69
2022/06/10 12:24:53;;;;;;;2.33;2.13;;;;;;;;;;4971758;28;20040;-73
2022/06/10 12:27:21;;;;;;;3.83;2.50;;;;;;;;;;4976150;28;20349;-69
2022/06/10 12:29:47;;;;;;;2.55;2.35;;;;;;;;;;4972435;28;20035;-72
2022/06/10 12:32:16;;;;;;;3.33;2.30;;;;;;;;;;4973047;28;20089;-70
2022/06/10 12:34:50;;;;;;;2.03;1.85;;;;;;;;;;4971622;28;20335;-68
2022/06/10 12:37:25;;;;;;;3.28;2.25;;;;;;;;;;4972373;28;20062;-69
2022/06/10 12:39:57;;;;;;;3.90;2.60;;;;;;;;;;4969207;28;20844;-70
2022/06/10 12:42:25;;;;;;;2.15;2.05;;;;;;;;;;4972873;28;20018;-68
2022/06/10 12:44:53;;;;;;;2.80;1.95;;;;;;;;;;4972839;28;20023;-69
2022/06/10 12:47:22;;;;;;;2.55;2.35;;;;;;;;;;4972223;28;20639;-73
2022/06/10 12:49:54;;;;;;;3.80;2.38;;;;;;;;;;4972140;28;20370;-69
2022/06/10 12:52:38;;;;;;;3.35;2.38;;;;;;;;;;4972703;28;20126;-73
2022/06/10 12:55:25;;;;;;;2.65;2.45;;;;;;;;;;4973306;28;20093;-70
2022/06/10 12:57:51;;;;;;;2.45;2.25;;;;;;;;;;4969076;28;20054;-69
2022/06/10 13:00:22;;;;;;;2.28;2.08;;;;;;;;;;4970949;28;20035;-71
2022/06/10 13:02:49;;;;;;;2.33;2.13;;;;;;;;;;4972358;28;20034;-70
2022/06/10 13:05:27;;;;;;;2.40;2.05;;;;;;;;;;4974433;28;20070;-69
2022/06/10 13:07:53;;;;;;;2.83;2.05;;;;;;;;;;4970646;28;20051;-70
2022/06/10 13:10:33;;;;;;;2.28;2.10;;;;;;;;;;4970212;28;20065;-71
2022/06/10 13:12:58;;;;;;;3.42;2.38;;;;;;;;;;4970427;28;20040;-69
2022/06/10 13:15:25;;;;;;;2.28;2.08;;;;;;;;;;4969423;28;20034;-70
2022/06/10 13:17:53;;;;;;;2.38;2.17;;;;;;;;;;4971635;28;20027;-74
2022/06/10 13:20:19;;;;;;;2.58;2.33;;;;;;;;;;4973369;28;20082;-71
2022/06/10 13:23:05;;;;;;;2.70;2.50;;;;;;;;;;4971411;28;20141;-70
2022/06/10 13:25:30;;;;;;;2.38;2.20;;;;;;;;;;4970254;28;20031;-73
2022/06/10 13:27:55;;;;;;;2.42;2.22;;;;;;;;;;4970442;28;20034;-70
2022/06/10 13:30:26;;;;;;;2.30;2.10;;;;;;;;;;4972785;28;20352;-74
2022/06/10 13:32:59;;;;;;;2.58;2.30;;;;;;;;;;4972625;28;20439;-71
2022/06/10 13:35:27;;;;;;;2.90;2.28;;;;;;;;;;4971170;28;20131;-68
2022/06/10 13:37:56;;;;;;;2.30;2.17;;;;;;;;;;4972233;28;20029;-70
2022/06/10 13:40:27;;;;;;;2.38;2.17;;;;;;;;;;4973058;28;20026;-70
2022/06/10 13:42:54;;;;;;;2.30;2.10;;;;;;;;;;4967545;28;20042;-70
2022/06/10 13:45:22;;;;;;;2.95;2.05;;;;;;;;;;4972117;28;20452;-70
2022/06/10 13:48:02;;;;;;;2.10;2.00;;;;;;;;;;4971286;28;20113;-70
2022/06/10 13:53:19;;;;;;;3.35;2.00;;;;;;;;;;4970486;28;20050;-76
2022/06/10 13:55:50;;;;;;;2.08;1.98;;;;;;;;;;4973666;28;20473;-70
2022/06/10 13:58:20;;;;;;;5.63;2.20;;;;;;;;;;4968830;28;20050;-70
2022/06/10 14:00:56;;;;;;;2.75;2.40;;;;;;;;;;4975499;28;20036;-71
2022/06/10 14:03:33;;;;;;;3.95;1.98;;;;;;;;;;4973004;28;20057;-68
2022/06/10 14:06:04;;;;;;;3.05;2.13;;;;;;;;;;4969779;28;20096;-70
2022/06/10 14:08:33;;;;;;;4.55;2.67;;;;;;;;;;4971401;28;20030;-71
2022/06/10 14:11:09;;;;;;;4.03;2.72;;;;;;;;;;4970402;28;20489;-71
2022/06/10 14:13:34;;;;;;;2.72;2.53;;;;;;;;;;4971493;28;20128;-71
2022/06/10 14:16:00;;;;;;;3.30;2.65;;;;;;;;;;4973126;28;20118;-69
2022/06/10 14:18:26;;;;;;;2.58;2.38;;;;;;;;;;4965396;28;20105;-69
2022/06/10 14:20:53;;;;;;;2.60;2.40;;;;;;;;;;4960548;28;20030;-69
2022/06/10 14:23:29;;;;;;;3.53;2.47;;;;;;;;;;4968821;28;20469;-70
2022/06/10 14:26:00;;;;;;;2.90;2.70;;;;;;;;;;4970830;28;20042;-71
2022/06/10 14:28:26;;;;;;;3.28;2.60;;;;;;;;;;4956269;28;20030;-75
2022/06/10 14:30:56;;;;;;;3.40;3.08;;;;;;;;;;4950017;28;20354;-75
2022/06/10 14:33:32;;;;;;;7.60;3.10;;;;;;;;;;4955902;28;20027;-72
2022/06/10 14:36:17;;;;;;;3.70;2.85;;;;;;;;;;4952848;28;20034;-69
2022/06/10 14:38:44;;;;;;;3.72;2.90;;;;;;;;;;4956818;28;20445;-71
2022/06/10 14:41:12;;;;;;;2.80;2.58;;;;;;;;;;4957449;28;20030;-70
2022/06/10 14:43:55;;;;;;;2.55;2.35;;;;;;;;;;4956123;28;20023;-71
2022/06/10 14:46:21;;;;;;;2.80;2.60;;;;;;;;;;4953137;28;20067;-71
2022/06/10 14:48:48;;;;;;;3.05;2.85;;;;;;;;;;4964924;28;20032;-77
2022/06/10 14:51:20;;;;;;;2.88;2.67;;;;;;;;;;4961582;28;20038;-72
2022/06/10 14:53:51;;;;;;;3.20;2.55;;;;;;;;;;4965925;28;20037;-70
2022/06/10 14:56:28;;;;;;;2.95;2.58;;;;;;;;;;4955448;28;20041;-71
2022/06/10 14:58:53;;;;;;;2.63;2.42;;;;;;;;;;4959962;28;20062;-71
2022/06/10 15:01:21;;;;;;;2.70;2.50;;;;;;;;;;4952971;28;20069;-71
2022/06/10 15:03:46;;;;;;;2.38;2.17;;;;;;;;;;4954969;28;20077;-74
2022/06/10 15:06:38;;;;;;;2.70;2.50;;;;;;;;;;4958607;28;20038;-76
2022/06/10 15:09:17;;;;;;;2.70;2.50;;;;;;;;;;4964022;28;20073;-72
2022/06/10 15:11:45;;;;;;;3.28;2.58;;;;;;;;;;4964595;28;20018;-71
2022/06/10 15:14:15;;;;;;;2.30;2.10;;;;;;;;;;4963752;28;20473;-71
2022/06/10 15:16:43;;;;;;;3.05;2.20;;;;;;;;;;4957436;28;20082;-70
2022/06/10 15:19:10;;;;;;;2.67;2.17;;;;;;;;;;4956779;28;20027;-73